sensor_id;sensor_type;location;lat;lon;timestamp;P1;durP1;ratioP1;P2;durP2;ratioP2
4575;SDS011;2300;51.874;8.430;2023-03-01T00:01:32;33.80;;;31.13;;
4575;SDS011;2300;51.874;8.430;2023-03-01T00:03:59;34.13;;;31.33;;
4575;SDS011;2300;51.874;8.430;2023-03-01T00:06:26;33.27;;;30.77;;
4575;SDS011;2300;51.874;8.430;2023-03-01T00:08:53;35.20;;;32.43;;
4575;SDS011;2300;51.874;8.430;2023-03-01T00:11:21;34.00;;;31.33;;
4575;SDS011;2300;51.874;8.430;2023-03-01T00:13:49;34.37;;;31.57;;
4575;SDS011;2300;51.874;8.430;2023-03-01T00:16:18;34.23;;;31.50;;
4575;SDS011;2300;51.874;8.430;2023-03-01T00:18:48;34.50;;;32.00;;
4575;SDS011;2300;51.874;8.430;2023-03-01T00:21:15;36.57;;;33.47;;
4575;SDS011;2300;51.874;8.430;2023-03-01T00:23:42;34.77;;;32.00;;
4575;SDS011;2300;51.874;8.430;2023-03-01T00:26:10;35.40;;;32.30;;
4575;SDS011;2300;51.874;8.430;2023-03-01T00:28:38;35.27;;;32.20;;
4575;SDS011;2300;51.874;8.430;2023-03-01T00:31:05;35.17;;;32.10;;
4575;SDS011;2300;51.874;8.430;2023-03-01T00:33:33;34.80;;;31.90;;
4575;SDS011;2300;51.874;8.430;2023-03-01T00:36:02;35.33;;;32.13;;
4575;SDS011;2300;51.874;8.430;2023-03-01T00:38:29;35.70;;;32.57;;
4575;SDS011;2300;51.874;8.430;2023-03-01T00:40:56;35.27;;;32.37;;
4575;SDS011;2300;51.874;8.430;2023-03-01T00:43:29;35.97;;;32.83;;
4575;SDS011;2300;51.874;8.430;2023-03-01T00:45:56;35.93;;;32.90;;
4575;SDS011;2300;51.874;8.430;2023-03-01T00:48:26;35.33;;;32.37;;
4575;SDS011;2300;51.874;8.430;2023-03-01T00:50:53;36.23;;;33.30;;
4575;SDS011;2300;51.874;8.430;2023-03-01T00:53:21;35.17;;;32.47;;
4575;SDS011;2300;51.874;8.430;2023-03-01T00:55:47;36.47;;;33.27;;
4575;SDS011;2300;51.874;8.430;2023-03-01T00:58:13;37.17;;;34.07;;
4575;SDS011;2300;51.874;8.430;2023-03-01T01:00:40;36.87;;;33.60;;
4575;SDS011;2300;51.874;8.430;2023-03-01T01:03:06;36.63;;;33.23;;
4575;SDS011;2300;51.874;8.430;2023-03-01T01:05:34;36.60;;;33.37;;
4575;SDS011;2300;51.874;8.430;2023-03-01T01:08:00;37.67;;;34.70;;
4575;SDS011;2300;51.874;8.430;2023-03-01T01:10:28;37.23;;;34.33;;
4575;SDS011;2300;51.874;8.430;2023-03-01T01:12:54;36.00;;;33.07;;
4575;SDS011;2300;51.874;8.430;2023-03-01T01:15:21;37.33;;;34.27;;
4575;SDS011;2300;51.874;8.430;2023-03-01T01:17:47;36.50;;;33.70;;
4575;SDS011;2300;51.874;8.430;2023-03-01T01:20:13;36.63;;;33.83;;
4575;SDS011;2300;51.874;8.430;2023-03-01T01:22:40;36.97;;;33.93;;
4575;SDS011;2300;51.874;8.430;2023-03-01T01:25:07;36.30;;;33.40;;
4575;SDS011;2300;51.874;8.430;2023-03-01T01:27:35;37.27;;;34.17;;
4575;SDS011;2300;51.874;8.430;2023-03-01T01:30:02;36.97;;;33.63;;
4575;SDS011;2300;51.874;8.430;2023-03-01T01:32:29;37.13;;;34.13;;
4575;SDS011;2300;51.874;8.430;2023-03-01T01:34:56;37.10;;;34.00;;
4575;SDS011;2300;51.874;8.430;2023-03-01T01:37:22;36.57;;;33.60;;
4575;SDS011;2300;51.874;8.430;2023-03-01T01:39:56;36.57;;;33.33;;
4575;SDS011;2300;51.874;8.430;2023-03-01T01:42:22;36.77;;;33.93;;
4575;SDS011;2300;51.874;8.430;2023-03-01T01:47:50;36.43;;;33.23;;
4575;SDS011;2300;51.874;8.430;2023-03-01T01:50:17;36.87;;;33.90;;
4575;SDS011;2300;51.874;8.430;2023-03-01T01:52:45;37.33;;;34.37;;
4575;SDS011;2300;51.874;8.430;2023-03-01T01:55:16;36.07;;;33.03;;
4575;SDS011;2300;51.874;8.430;2023-03-01T01:57:46;37.10;;;33.87;;
4575;SDS011;2300;51.874;8.430;2023-03-01T02:00:16;35.87;;;32.83;;
4575;SDS011;2300;51.874;8.430;2023-03-01T02:02:46;37.03;;;33.60;;
4575;SDS011;2300;51.874;8.430;2023-03-01T02:05:20;36.70;;;33.73;;
4575;SDS011;2300;51.874;8.430;2023-03-01T02:07:51;37.20;;;34.10;;
4575;SDS011;2300;51.874;8.430;2023-03-01T02:10:19;36.23;;;33.20;;
4575;SDS011;2300;51.874;8.430;2023-03-01T02:12:46;37.00;;;33.30;;
4575;SDS011;2300;51.874;8.430;2023-03-01T02:15:12;36.70;;;33.60;;
4575;SDS011;2300;51.874;8.430;2023-03-01T02:17:39;36.27;;;33.27;;
4575;SDS011;2300;51.874;8.430;2023-03-01T02:20:09;37.33;;;34.07;;
4575;SDS011;2300;51.874;8.430;2023-03-01T02:22:43;37.83;;;34.47;;
4575;SDS011;2300;51.874;8.430;2023-03-01T02:27:51;38.00;;;34.63;;
4575;SDS011;2300;51.874;8.430;2023-03-01T02:30:26;37.20;;;34.20;;
4575;SDS011;2300;51.874;8.430;2023-03-01T02:32:53;38.03;;;34.83;;
4575;SDS011;2300;51.874;8.430;2023-03-01T02:35:28;36.40;;;33.00;;
4575;SDS011;2300;51.874;8.430;2023-03-01T02:37:56;36.50;;;33.20;;
4575;SDS011;2300;51.874;8.430;2023-03-01T02:40:25;37.37;;;33.97;;
4575;SDS011;2300;51.874;8.430;2023-03-01T02:42:56;36.53;;;33.43;;
4575;SDS011;2300;51.874;8.430;2023-03-01T02:45:24;36.23;;;33.10;;
4575;SDS011;2300;51.874;8.430;2023-03-01T02:47:53;36.53;;;33.37;;
4575;SDS011;2300;51.874;8.430;2023-03-01T02:50:31;35.27;;;32.57;;
4575;SDS011;2300;51.874;8.430;2023-03-01T02:53:12;34.90;;;32.10;;
4575;SDS011;2300;51.874;8.430;2023-03-01T02:55:45;36.13;;;33.33;;
4575;SDS011;2300;51.874;8.430;2023-03-01T02:58:11;36.73;;;33.60;;
4575;SDS011;2300;51.874;8.430;2023-03-01T03:00:39;35.73;;;32.83;;
4575;SDS011;2300;51.874;8.430;2023-03-01T03:03:10;35.67;;;32.70;;
4575;SDS011;2300;51.874;8.430;2023-03-01T03:05:39;36.30;;;33.43;;
4575;SDS011;2300;51.874;8.430;2023-03-01T03:08:07;36.70;;;33.57;;
4575;SDS011;2300;51.874;8.430;2023-03-01T03:10:34;36.83;;;33.53;;
4575;SDS011;2300;51.874;8.430;2023-03-01T03:13:03;35.67;;;32.57;;
4575;SDS011;2300;51.874;8.430;2023-03-01T03:15:32;36.27;;;33.13;;
4575;SDS011;2300;51.874;8.430;2023-03-01T03:18:02;35.77;;;32.67;;
4575;SDS011;2300;51.874;8.430;2023-03-01T03:20:30;36.20;;;33.07;;
4575;SDS011;2300;51.874;8.430;2023-03-01T03:22:57;35.37;;;32.27;;
4575;SDS011;2300;51.874;8.430;2023-03-01T03:25:24;36.03;;;33.13;;
4575;SDS011;2300;51.874;8.430;2023-03-01T03:27:52;37.03;;;33.87;;
4575;SDS011;2300;51.874;8.430;2023-03-01T03:30:21;36.43;;;33.43;;
4575;SDS011;2300;51.874;8.430;2023-03-01T03:32:49;37.57;;;33.50;;
4575;SDS011;2300;51.874;8.430;2023-03-01T03:35:20;37.03;;;33.77;;
4575;SDS011;2300;51.874;8.430;2023-03-01T03:37:48;37.00;;;33.53;;
4575;SDS011;2300;51.874;8.430;2023-03-01T03:40:32;37.00;;;33.83;;
4575;SDS011;2300;51.874;8.430;2023-03-01T03:43:00;37.60;;;34.23;;
4575;SDS011;2300;51.874;8.430;2023-03-01T03:45:26;39.30;;;35.60;;
4575;SDS011;2300;51.874;8.430;2023-03-01T03:47:53;37.37;;;33.87;;
4575;SDS011;2300;51.874;8.430;2023-03-01T03:50:20;35.67;;;32.67;;
4575;SDS011;2300;51.874;8.430;2023-03-01T03:52:47;37.07;;;33.47;;
4575;SDS011;2300;51.874;8.430;2023-03-01T03:55:13;36.77;;;33.50;;
4575;SDS011;2300;51.874;8.430;2023-03-01T03:57:45;36.53;;;33.47;;
4575;SDS011;2300;51.874;8.430;2023-03-01T04:00:16;37.00;;;33.30;;
4575;SDS011;2300;51.874;8.430;2023-03-01T04:02:44;36.20;;;33.07;;
4575;SDS011;2300;51.874;8.430;2023-03-01T04:05:12;37.97;;;34.77;;
4575;SDS011;2300;51.874;8.430;2023-03-01T04:07:42;35.73;;;32.53;;
4575;SDS011;2300;51.874;8.430;2023-03-01T04:10:09;35.30;;;32.57;;
4575;SDS011;2300;51.874;8.430;2023-03-01T04:12:37;37.10;;;33.97;;
4575;SDS011;2300;51.874;8.430;2023-03-01T04:15:04;34.53;;;31.73;;
4575;SDS011;2300;51.874;8.430;2023-03-01T04:17:38;35.27;;;32.20;;
4575;SDS011;2300;51.874;8.430;2023-03-01T04:20:05;33.17;;;30.63;;
4575;SDS011;2300;51.874;8.430;2023-03-01T04:22:33;36.00;;;32.73;;
4575;SDS011;2300;51.874;8.430;2023-03-01T04:25:01;34.90;;;32.00;;
4575;SDS011;2300;51.874;8.430;2023-03-01T04:27:30;34.47;;;31.67;;
4575;SDS011;2300;51.874;8.430;2023-03-01T04:29:56;36.77;;;33.47;;
4575;SDS011;2300;51.874;8.430;2023-03-01T04:32:22;35.67;;;32.27;;
4575;SDS011;2300;51.874;8.430;2023-03-01T04:34:49;36.57;;;33.37;;
4575;SDS011;2300;51.874;8.430;2023-03-01T04:37:15;36.40;;;33.50;;
4575;SDS011;2300;51.874;8.430;2023-03-01T04:39:42;36.87;;;33.80;;
4575;SDS011;2300;51.874;8.430;2023-03-01T04:42:11;34.97;;;32.00;;
4575;SDS011;2300;51.874;8.430;2023-03-01T04:44:38;37.03;;;33.53;;
4575;SDS011;2300;51.874;8.430;2023-03-01T04:47:05;37.90;;;34.63;;
4575;SDS011;2300;51.874;8.430;2023-03-01T04:49:31;37.77;;;34.37;;
4575;SDS011;2300;51.874;8.430;2023-03-01T04:51:58;37.43;;;34.20;;
4575;SDS011;2300;51.874;8.430;2023-03-01T04:54:27;38.20;;;34.67;;
4575;SDS011;2300;51.874;8.430;2023-03-01T04:56:53;37.83;;;33.93;;
4575;SDS011;2300;51.874;8.430;2023-03-01T04:59:21;36.90;;;33.20;;
4575;SDS011;2300;51.874;8.430;2023-03-01T05:01:47;36.20;;;32.97;;
4575;SDS011;2300;51.874;8.430;2023-03-01T05:04:14;35.83;;;32.83;;
4575;SDS011;2300;51.874;8.430;2023-03-01T05:06:40;35.87;;;32.87;;
4575;SDS011;2300;51.874;8.430;2023-03-01T05:09:07;36.90;;;33.53;;
4575;SDS011;2300;51.874;8.430;2023-03-01T05:11:33;37.73;;;34.30;;
4575;SDS011;2300;51.874;8.430;2023-03-01T05:14:00;36.03;;;32.60;;
4575;SDS011;2300;51.874;8.430;2023-03-01T05:16:28;37.47;;;33.67;;
4575;SDS011;2300;51.874;8.430;2023-03-01T05:18:56;37.80;;;34.17;;
4575;SDS011;2300;51.874;8.430;2023-03-01T05:21:22;36.63;;;33.63;;
4575;SDS011;2300;51.874;8.430;2023-03-01T05:23:49;37.80;;;34.27;;
4575;SDS011;2300;51.874;8.430;2023-03-01T05:26:15;39.20;;;35.70;;
4575;SDS011;2300;51.874;8.430;2023-03-01T05:28:43;39.10;;;35.17;;
4575;SDS011;2300;51.874;8.430;2023-03-01T05:31:09;38.37;;;35.17;;
4575;SDS011;2300;51.874;8.430;2023-03-01T05:33:37;36.77;;;33.43;;
4575;SDS011;2300;51.874;8.430;2023-03-01T05:36:05;37.63;;;34.13;;
4575;SDS011;2300;51.874;8.430;2023-03-01T05:38:32;38.53;;;35.33;;
4575;SDS011;2300;51.874;8.430;2023-03-01T05:40:59;41.60;;;37.33;;
4575;SDS011;2300;51.874;8.430;2023-03-01T05:43:26;44.33;;;39.73;;
4575;SDS011;2300;51.874;8.430;2023-03-01T05:45:57;43.97;;;39.60;;
4575;SDS011;2300;51.874;8.430;2023-03-01T05:48:25;39.13;;;35.43;;
4575;SDS011;2300;51.874;8.430;2023-03-01T05:50:53;37.93;;;34.47;;
4575;SDS011;2300;51.874;8.430;2023-03-01T05:53:20;37.07;;;34.00;;
4575;SDS011;2300;51.874;8.430;2023-03-01T05:55:47;36.63;;;33.43;;
4575;SDS011;2300;51.874;8.430;2023-03-01T05:58:16;37.83;;;34.63;;
4575;SDS011;2300;51.874;8.430;2023-03-01T06:00:44;37.40;;;34.33;;
4575;SDS011;2300;51.874;8.430;2023-03-01T06:03:12;38.80;;;35.13;;
4575;SDS011;2300;51.874;8.430;2023-03-01T06:05:39;37.47;;;34.27;;
4575;SDS011;2300;51.874;8.430;2023-03-01T06:08:08;37.67;;;34.17;;
4575;SDS011;2300;51.874;8.430;2023-03-01T06:10:35;38.70;;;35.43;;
4575;SDS011;2300;51.874;8.430;2023-03-01T06:13:02;41.17;;;37.27;;
4575;SDS011;2300;51.874;8.430;2023-03-01T06:15:29;39.07;;;35.63;;
4575;SDS011;2300;51.874;8.430;2023-03-01T06:17:55;37.73;;;34.53;;
4575;SDS011;2300;51.874;8.430;2023-03-01T06:20:23;38.80;;;34.93;;
4575;SDS011;2300;51.874;8.430;2023-03-01T06:22:50;38.47;;;35.00;;
4575;SDS011;2300;51.874;8.430;2023-03-01T06:25:20;38.80;;;35.03;;
4575;SDS011;2300;51.874;8.430;2023-03-01T06:27:48;40.20;;;36.73;;
4575;SDS011;2300;51.874;8.430;2023-03-01T06:30:15;38.53;;;35.23;;
4575;SDS011;2300;51.874;8.430;2023-03-01T06:32:43;39.50;;;35.90;;
4575;SDS011;2300;51.874;8.430;2023-03-01T06:35:10;38.87;;;35.20;;
4575;SDS011;2300;51.874;8.430;2023-03-01T06:37:37;39.17;;;35.40;;
4575;SDS011;2300;51.874;8.430;2023-03-01T06:40:04;39.33;;;35.43;;
4575;SDS011;2300;51.874;8.430;2023-03-01T06:42:34;36.90;;;33.70;;
4575;SDS011;2300;51.874;8.430;2023-03-01T06:45:02;38.50;;;35.07;;
4575;SDS011;2300;51.874;8.430;2023-03-01T06:47:29;35.63;;;32.63;;
4575;SDS011;2300;51.874;8.430;2023-03-01T06:49:55;37.83;;;34.10;;
4575;SDS011;2300;51.874;8.430;2023-03-01T06:52:22;37.07;;;33.77;;
4575;SDS011;2300;51.874;8.430;2023-03-01T06:54:48;37.57;;;34.33;;
4575;SDS011;2300;51.874;8.430;2023-03-01T06:57:15;37.73;;;34.43;;
4575;SDS011;2300;51.874;8.430;2023-03-01T06:59:42;35.47;;;32.33;;
4575;SDS011;2300;51.874;8.430;2023-03-01T07:02:09;35.30;;;32.20;;
4575;SDS011;2300;51.874;8.430;2023-03-01T07:04:37;35.87;;;32.77;;
4575;SDS011;2300;51.874;8.430;2023-03-01T07:07:03;36.10;;;33.00;;
4575;SDS011;2300;51.874;8.430;2023-03-01T07:09:30;35.80;;;32.73;;
4575;SDS011;2300;51.874;8.430;2023-03-01T07:11:56;36.47;;;33.37;;
4575;SDS011;2300;51.874;8.430;2023-03-01T07:14:23;35.20;;;32.17;;
4575;SDS011;2300;51.874;8.430;2023-03-01T07:16:52;36.10;;;32.47;;
4575;SDS011;2300;51.874;8.430;2023-03-01T07:19:18;36.80;;;33.80;;
4575;SDS011;2300;51.874;8.430;2023-03-01T07:21:45;36.80;;;33.60;;
4575;SDS011;2300;51.874;8.430;2023-03-01T07:24:11;36.93;;;33.77;;
4575;SDS011;2300;51.874;8.430;2023-03-01T07:26:38;35.60;;;32.63;;
4575;SDS011;2300;51.874;8.430;2023-03-01T07:29:05;35.37;;;32.40;;
4575;SDS011;2300;51.874;8.430;2023-03-01T07:31:32;37.93;;;35.03;;
4575;SDS011;2300;51.874;8.430;2023-03-01T07:34:01;37.00;;;32.80;;
4575;SDS011;2300;51.874;8.430;2023-03-01T07:36:27;37.73;;;34.37;;
4575;SDS011;2300;51.874;8.430;2023-03-01T07:38:54;35.77;;;32.27;;
4575;SDS011;2300;51.874;8.430;2023-03-01T07:41:21;37.33;;;34.03;;
4575;SDS011;2300;51.874;8.430;2023-03-01T07:43:47;35.23;;;32.37;;
4575;SDS011;2300;51.874;8.430;2023-03-01T07:46:14;34.93;;;31.83;;
4575;SDS011;2300;51.874;8.430;2023-03-01T07:48:40;35.97;;;32.77;;
4575;SDS011;2300;51.874;8.430;2023-03-01T07:51:09;35.00;;;32.20;;
4575;SDS011;2300;51.874;8.430;2023-03-01T07:53:36;34.77;;;31.57;;
4575;SDS011;2300;51.874;8.430;2023-03-01T07:56:03;35.20;;;32.17;;
4575;SDS011;2300;51.874;8.430;2023-03-01T07:58:33;34.50;;;31.13;;
4575;SDS011;2300;51.874;8.430;2023-03-01T08:01:00;35.40;;;32.47;;
4575;SDS011;2300;51.874;8.430;2023-03-01T08:03:27;33.40;;;30.37;;
4575;SDS011;2300;51.874;8.430;2023-03-01T08:05:54;34.40;;;31.07;;
4575;SDS011;2300;51.874;8.430;2023-03-01T08:08:22;33.47;;;30.40;;
4575;SDS011;2300;51.874;8.430;2023-03-01T08:10:48;32.87;;;30.27;;
4575;SDS011;2300;51.874;8.430;2023-03-01T08:13:14;34.07;;;31.27;;
4575;SDS011;2300;51.874;8.430;2023-03-01T08:15:41;33.67;;;30.93;;
4575;SDS011;2300;51.874;8.430;2023-03-01T08:18:07;33.53;;;30.40;;
4575;SDS011;2300;51.874;8.430;2023-03-01T08:20:34;33.97;;;31.17;;
4575;SDS011;2300;51.874;8.430;2023-03-01T08:23:00;33.90;;;30.77;;
4575;SDS011;2300;51.874;8.430;2023-03-01T08:25:28;34.00;;;30.83;;
4575;SDS011;2300;51.874;8.430;2023-03-01T08:27:54;33.53;;;30.47;;
4575;SDS011;2300;51.874;8.430;2023-03-01T08:30:21;32.97;;;30.43;;
4575;SDS011;2300;51.874;8.430;2023-03-01T08:32:49;32.23;;;29.53;;
4575;SDS011;2300;51.874;8.430;2023-03-01T08:35:15;32.70;;;30.00;;
4575;SDS011;2300;51.874;8.430;2023-03-01T08:37:42;32.10;;;29.47;;
4575;SDS011;2300;51.874;8.430;2023-03-01T08:40:09;33.73;;;31.00;;
4575;SDS011;2300;51.874;8.430;2023-03-01T08:42:39;31.87;;;29.07;;
4575;SDS011;2300;51.874;8.430;2023-03-01T08:45:08;33.47;;;30.57;;
4575;SDS011;2300;51.874;8.430;2023-03-01T08:47:35;33.13;;;30.33;;
4575;SDS011;2300;51.874;8.430;2023-03-01T08:50:03;32.23;;;29.60;;
4575;SDS011;2300;51.874;8.430;2023-03-01T08:52:31;30.50;;;28.10;;
4575;SDS011;2300;51.874;8.430;2023-03-01T08:54:59;31.37;;;28.67;;
4575;SDS011;2300;51.874;8.430;2023-03-01T08:57:26;31.53;;;29.00;;
4575;SDS011;2300;51.874;8.430;2023-03-01T08:59:54;32.77;;;29.83;;
4575;SDS011;2300;51.874;8.430;2023-03-01T09:02:21;42.50;;;39.57;;
4575;SDS011;2300;51.874;8.430;2023-03-01T09:04:48;31.77;;;29.10;;
4575;SDS011;2300;51.874;8.430;2023-03-01T09:07:15;32.00;;;29.43;;
4575;SDS011;2300;51.874;8.430;2023-03-01T09:09:41;30.83;;;28.47;;
4575;SDS011;2300;51.874;8.430;2023-03-01T09:12:07;30.03;;;27.60;;
4575;SDS011;2300;51.874;8.430;2023-03-01T09:14:34;30.10;;;27.70;;
4575;SDS011;2300;51.874;8.430;2023-03-01T09:17:03;29.07;;;26.90;;
4575;SDS011;2300;51.874;8.430;2023-03-01T09:19:30;28.73;;;26.50;;
4575;SDS011;2300;51.874;8.430;2023-03-01T09:21:56;28.97;;;26.53;;
4575;SDS011;2300;51.874;8.430;2023-03-01T09:24:23;29.13;;;26.63;;
4575;SDS011;2300;51.874;8.430;2023-03-01T09:26:50;42.90;;;35.40;;
4575;SDS011;2300;51.874;8.430;2023-03-01T09:29:19;38.37;;;35.07;;
4575;SDS011;2300;51.874;8.430;2023-03-01T09:31:46;33.80;;;30.90;;
4575;SDS011;2300;51.874;8.430;2023-03-01T09:34:15;35.97;;;32.73;;
4575;SDS011;2300;51.874;8.430;2023-03-01T09:36:48;27.27;;;24.73;;
4575;SDS011;2300;51.874;8.430;2023-03-01T09:39:14;42.80;;;38.47;;
4575;SDS011;2300;51.874;8.430;2023-03-01T09:41:43;32.17;;;29.20;;
4575;SDS011;2300;51.874;8.430;2023-03-01T09:44:19;28.30;;;25.90;;
4575;SDS011;2300;51.874;8.430;2023-03-01T09:46:52;27.60;;;25.30;;
4575;SDS011;2300;51.874;8.430;2023-03-01T09:49:20;25.20;;;23.10;;
4575;SDS011;2300;51.874;8.430;2023-03-01T09:51:54;25.40;;;23.27;;
4575;SDS011;2300;51.874;8.430;2023-03-01T09:54:24;25.13;;;23.00;;
4575;SDS011;2300;51.874;8.430;2023-03-01T09:56:57;24.37;;;22.27;;
4575;SDS011;2300;51.874;8.430;2023-03-01T09:59:30;25.67;;;23.47;;
4575;SDS011;2300;51.874;8.430;2023-03-01T10:02:05;23.73;;;21.83;;
4575;SDS011;2300;51.874;8.430;2023-03-01T10:04:48;24.97;;;22.87;;
4575;SDS011;2300;51.874;8.430;2023-03-01T10:07:20;25.17;;;23.17;;
4575;SDS011;2300;51.874;8.430;2023-03-01T10:09:52;23.40;;;21.33;;
4575;SDS011;2300;51.874;8.430;2023-03-01T10:12:20;26.43;;;24.17;;
4575;SDS011;2300;51.874;8.430;2023-03-01T10:14:51;26.60;;;24.00;;
4575;SDS011;2300;51.874;8.430;2023-03-01T10:17:25;24.27;;;22.27;;
4575;SDS011;2300;51.874;8.430;2023-03-01T10:19:57;24.53;;;22.43;;
4575;SDS011;2300;51.874;8.430;2023-03-01T10:22:41;27.23;;;24.83;;
4575;SDS011;2300;51.874;8.430;2023-03-01T10:25:12;26.07;;;23.60;;
4575;SDS011;2300;51.874;8.430;2023-03-01T10:27:43;24.03;;;21.63;;
4575;SDS011;2300;51.874;8.430;2023-03-01T10:30:17;24.90;;;22.70;;
4575;SDS011;2300;51.874;8.430;2023-03-01T10:32:47;24.63;;;22.40;;
4575;SDS011;2300;51.874;8.430;2023-03-01T10:35:19;26.80;;;24.23;;
4575;SDS011;2300;51.874;8.430;2023-03-01T10:37:57;24.20;;;22.10;;
4575;SDS011;2300;51.874;8.430;2023-03-01T10:40:28;25.33;;;22.83;;
4575;SDS011;2300;51.874;8.430;2023-03-01T10:42:56;24.77;;;22.57;;
4575;SDS011;2300;51.874;8.430;2023-03-01T10:45:32;23.93;;;21.77;;
4575;SDS011;2300;51.874;8.430;2023-03-01T10:48:11;20.90;;;19.20;;
4575;SDS011;2300;51.874;8.430;2023-03-01T10:50:41;24.03;;;21.83;;
4575;SDS011;2300;51.874;8.430;2023-03-01T10:53:18;23.87;;;21.87;;
4575;SDS011;2300;51.874;8.430;2023-03-01T10:55:55;23.60;;;21.40;;
4575;SDS011;2300;51.874;8.430;2023-03-01T10:58:24;22.90;;;20.90;;
4575;SDS011;2300;51.874;8.430;2023-03-01T11:00:51;23.13;;;21.07;;
4575;SDS011;2300;51.874;8.430;2023-03-01T11:03:21;28.40;;;26.20;;
4575;SDS011;2300;51.874;8.430;2023-03-01T11:05:51;25.13;;;22.83;;
4575;SDS011;2300;51.874;8.430;2023-03-01T11:08:34;23.70;;;21.60;;
4575;SDS011;2300;51.874;8.430;2023-03-01T11:11:03;23.60;;;21.50;;
4575;SDS011;2300;51.874;8.430;2023-03-01T11:13:31;23.00;;;21.00;;
4575;SDS011;2300;51.874;8.430;2023-03-01T11:15:58;24.37;;;22.30;;
4575;SDS011;2300;51.874;8.430;2023-03-01T11:18:26;23.23;;;21.03;;
4575;SDS011;2300;51.874;8.430;2023-03-01T11:20:56;24.63;;;22.33;;
4575;SDS011;2300;51.874;8.430;2023-03-01T11:23:25;23.73;;;21.53;;
4575;SDS011;2300;51.874;8.430;2023-03-01T11:25:55;24.27;;;21.87;;
4575;SDS011;2300;51.874;8.430;2023-03-01T11:28:24;23.77;;;21.57;;
4575;SDS011;2300;51.874;8.430;2023-03-01T11:30:55;22.53;;;20.60;;
4575;SDS011;2300;51.874;8.430;2023-03-01T11:33:30;21.50;;;19.67;;
4575;SDS011;2300;51.874;8.430;2023-03-01T11:36:05;21.30;;;19.37;;
4575;SDS011;2300;51.874;8.430;2023-03-01T11:38:37;20.80;;;19.03;;
4575;SDS011;2300;51.874;8.430;2023-03-01T11:41:06;21.47;;;19.40;;
4575;SDS011;2300;51.874;8.430;2023-03-01T11:43:35;21.53;;;19.70;;
4575;SDS011;2300;51.874;8.430;2023-03-01T11:46:21;21.27;;;19.37;;
4575;SDS011;2300;51.874;8.430;2023-03-01T11:49:06;21.13;;;19.23;;
4575;SDS011;2300;51.874;8.430;2023-03-01T11:51:51;21.57;;;19.67;;
4575;SDS011;2300;51.874;8.430;2023-03-01T11:54:28;22.17;;;20.13;;
4575;SDS011;2300;51.874;8.430;2023-03-01T11:57:07;21.67;;;19.80;;
4575;SDS011;2300;51.874;8.430;2023-03-01T12:05:35;21.90;;;20.00;;
4575;SDS011;2300;51.874;8.430;2023-03-01T12:08:16;20.87;;;19.00;;
4575;SDS011;2300;51.874;8.430;2023-03-01T12:10:52;20.43;;;18.60;;
4575;SDS011;2300;51.874;8.430;2023-03-01T12:16:35;20.63;;;18.83;;
4575;SDS011;2300;51.874;8.430;2023-03-01T12:19:25;19.57;;;18.07;;
4575;SDS011;2300;51.874;8.430;2023-03-01T12:22:09;20.20;;;18.70;;
4575;SDS011;2300;51.874;8.430;2023-03-01T12:25:05;20.13;;;18.33;;
4575;SDS011;2300;51.874;8.430;2023-03-01T12:31:12;24.67;;;22.97;;
4575;SDS011;2300;51.874;8.430;2023-03-01T12:33:56;20.77;;;19.07;;
4575;SDS011;2300;51.874;8.430;2023-03-01T12:36:35;19.80;;;17.87;;
4575;SDS011;2300;51.874;8.430;2023-03-01T12:39:24;19.67;;;18.27;;
4575;SDS011;2300;51.874;8.430;2023-03-01T12:42:03;18.73;;;17.33;;
4575;SDS011;2300;51.874;8.430;2023-03-01T12:44:41;18.40;;;17.03;;
4575;SDS011;2300;51.874;8.430;2023-03-01T12:47:26;19.50;;;18.03;;
4575;SDS011;2300;51.874;8.430;2023-03-01T12:50:03;18.63;;;17.13;;
4575;SDS011;2300;51.874;8.430;2023-03-01T12:52:38;19.50;;;17.93;;
4575;SDS011;2300;51.874;8.430;2023-03-01T12:55:16;21.83;;;20.03;;
4575;SDS011;2300;51.874;8.430;2023-03-01T12:57:51;21.87;;;20.43;;
4575;SDS011;2300;51.874;8.430;2023-03-01T13:00:30;19.07;;;17.47;;
4575;SDS011;2300;51.874;8.430;2023-03-01T13:03:04;19.50;;;17.90;;
4575;SDS011;2300;51.874;8.430;2023-03-01T13:05:39;18.93;;;17.43;;
4575;SDS011;2300;51.874;8.430;2023-03-01T13:08:19;20.90;;;19.20;;
4575;SDS011;2300;51.874;8.430;2023-03-01T13:10:53;19.63;;;18.17;;
4575;SDS011;2300;51.874;8.430;2023-03-01T13:13:26;19.33;;;17.80;;
4575;SDS011;2300;51.874;8.430;2023-03-01T13:15:54;19.83;;;18.43;;
4575;SDS011;2300;51.874;8.430;2023-03-01T13:18:30;21.67;;;19.90;;
4575;SDS011;2300;51.874;8.430;2023-03-01T13:20:59;19.40;;;17.80;;
4575;SDS011;2300;51.874;8.430;2023-03-01T13:23:28;19.10;;;17.40;;
4575;SDS011;2300;51.874;8.430;2023-03-01T13:26:13;20.07;;;18.23;;
4575;SDS011;2300;51.874;8.430;2023-03-01T13:28:47;20.23;;;18.67;;
4575;SDS011;2300;51.874;8.430;2023-03-01T13:37:28;18.90;;;17.50;;
4575;SDS011;2300;51.874;8.430;2023-03-01T13:40:00;17.87;;;16.23;;
4575;SDS011;2300;51.874;8.430;2023-03-01T13:42:43;18.23;;;16.60;;
4575;SDS011;2300;51.874;8.430;2023-03-01T13:45:31;17.67;;;16.37;;
4575;SDS011;2300;51.874;8.430;2023-03-01T13:48:03;17.63;;;16.13;;
4575;SDS011;2300;51.874;8.430;2023-03-01T13:50:37;17.53;;;16.13;;
4575;SDS011;2300;51.874;8.430;2023-03-01T13:53:09;16.93;;;15.63;;
4575;SDS011;2300;51.874;8.430;2023-03-01T13:55:42;18.87;;;17.57;;
4575;SDS011;2300;51.874;8.430;2023-03-01T13:58:15;16.60;;;15.20;;
4575;SDS011;2300;51.874;8.430;2023-03-01T14:00:46;17.23;;;15.83;;
4575;SDS011;2300;51.874;8.430;2023-03-01T14:03:14;16.83;;;15.47;;
4575;SDS011;2300;51.874;8.430;2023-03-01T14:05:43;17.50;;;15.97;;
4575;SDS011;2300;51.874;8.430;2023-03-01T14:08:24;16.63;;;15.30;;
4575;SDS011;2300;51.874;8.430;2023-03-01T14:11:06;15.33;;;14.23;;
4575;SDS011;2300;51.874;8.430;2023-03-01T14:14:00;16.67;;;15.37;;
4575;SDS011;2300;51.874;8.430;2023-03-01T14:16:49;16.60;;;15.30;;
4575;SDS011;2300;51.874;8.430;2023-03-01T14:19:24;16.43;;;15.13;;
4575;SDS011;2300;51.874;8.430;2023-03-01T14:21:58;16.97;;;15.67;;
4575;SDS011;2300;51.874;8.430;2023-03-01T14:24:28;16.73;;;15.43;;
4575;SDS011;2300;51.874;8.430;2023-03-01T14:26:57;16.43;;;15.23;;
4575;SDS011;2300;51.874;8.430;2023-03-01T14:29:33;16.93;;;15.43;;
4575;SDS011;2300;51.874;8.430;2023-03-01T14:32:12;16.87;;;15.53;;
4575;SDS011;2300;51.874;8.430;2023-03-01T14:34:45;17.43;;;15.93;;
4575;SDS011;2300;51.874;8.430;2023-03-01T14:37:19;18.03;;;16.50;;
4575;SDS011;2300;51.874;8.430;2023-03-01T14:39:47;17.27;;;16.00;;
4575;SDS011;2300;51.874;8.430;2023-03-01T14:42:14;17.10;;;15.63;;
4575;SDS011;2300;51.874;8.430;2023-03-01T14:44:42;16.93;;;15.63;;
4575;SDS011;2300;51.874;8.430;2023-03-01T14:47:12;17.20;;;15.80;;
4575;SDS011;2300;51.874;8.430;2023-03-01T14:49:41;16.83;;;15.43;;
4575;SDS011;2300;51.874;8.430;2023-03-01T14:52:17;17.03;;;15.47;;
4575;SDS011;2300;51.874;8.430;2023-03-01T14:54:46;16.73;;;15.43;;
4575;SDS011;2300;51.874;8.430;2023-03-01T14:57:16;16.93;;;15.70;;
4575;SDS011;2300;51.874;8.430;2023-03-01T14:59:44;16.63;;;15.33;;
4575;SDS011;2300;51.874;8.430;2023-03-01T15:02:15;17.17;;;15.87;;
4575;SDS011;2300;51.874;8.430;2023-03-01T15:04:46;17.50;;;15.73;;
4575;SDS011;2300;51.874;8.430;2023-03-01T15:07:14;17.60;;;16.07;;
4575;SDS011;2300;51.874;8.430;2023-03-01T15:09:42;17.80;;;16.30;;
4575;SDS011;2300;51.874;8.430;2023-03-01T15:17:58;17.93;;;16.63;;
4575;SDS011;2300;51.874;8.430;2023-03-01T15:20:26;18.10;;;16.70;;
4575;SDS011;2300;51.874;8.430;2023-03-01T15:22:55;18.30;;;16.80;;
4575;SDS011;2300;51.874;8.430;2023-03-01T15:25:23;17.57;;;16.17;;
4575;SDS011;2300;51.874;8.430;2023-03-01T15:27:52;19.13;;;17.53;;
4575;SDS011;2300;51.874;8.430;2023-03-01T15:30:22;18.10;;;16.60;;
4575;SDS011;2300;51.874;8.430;2023-03-01T15:35:45;18.80;;;17.33;;
4575;SDS011;2300;51.874;8.430;2023-03-01T15:38:27;25.13;;;23.10;;